createdAt,value
2022-11-03T00:00:56.550Z,6.78
2022-11-03T00:05:18.357Z,5.93
2022-11-03T00:09:21.347Z,5.97
2022-11-03T00:13:22.831Z,6.25
2022-11-03T00:17:24.424Z,4.03
2022-11-03T00:21:25.820Z,6.20
2022-11-03T00:25:27.270Z,5.68
2022-11-03T00:29:28.715Z,6.35
2022-11-03T00:33:33.812Z,4.80
2022-11-03T00:37:35.578Z,5.40
2022-11-03T00:41:37.567Z,4.18
2022-11-03T00:45:38.964Z,4.60
2022-11-03T00:49:40.359Z,3.92
2022-11-03T00:53:48.828Z,3.75
2022-11-03T00:57:53.116Z,4.28
2022-11-03T01:01:54.704Z,3.40
2022-11-03T01:06:14.925Z,3.90
2022-11-03T01:10:16.643Z,4.35
2022-11-03T01:14:18.034Z,3.55
2022-11-03T01:18:19.685Z,3.33
2022-11-03T01:22:22.227Z,4.00
2022-11-03T01:26:23.851Z,3.75
2022-11-03T01:30:25.683Z,4.95
2022-11-03T01:34:27.111Z,3.65
2022-11-03T01:38:31.884Z,5.72
2022-11-03T01:42:33.332Z,4.80
2022-11-03T01:46:55.883Z,4.68
2022-11-03T01:50:57.509Z,5.13
2022-11-03T01:55:01.234Z,4.60
2022-11-03T01:59:03.647Z,4.95
2022-11-03T02:03:05.991Z,4.40
2022-11-03T02:07:54.233Z,5.07
2022-11-03T02:12:08.059Z,4.80
2022-11-03T02:16:09.841Z,5.07
2022-11-03T02:20:18.390Z,4.47
2022-11-03T02:24:41.536Z,4.55
2022-11-03T02:28:43.228Z,5.03
2022-11-03T02:33:22.697Z,4.18
2022-11-03T02:37:27.183Z,4.80
2022-11-03T02:41:29.758Z,4.43
2022-11-03T02:45:31.592Z,5.18
2022-11-03T02:49:38.685Z,4.70
2022-11-03T02:53:57.197Z,4.25
2022-11-03T02:58:20.085Z,4.45
2022-11-03T03:02:32.667Z,6.18
2022-11-03T03:06:40.707Z,3.90
2022-11-03T03:10:44.021Z,4.70
2022-11-03T03:14:46.674Z,4.35
2022-11-03T03:18:58.156Z,5.18
2022-11-03T03:23:07.515Z,3.95
2022-11-03T03:27:14.445Z,3.45
2022-11-03T03:31:18.360Z,3.63
2022-11-03T03:35:26.162Z,3.85
2022-11-03T03:39:31.940Z,4.10
2022-11-03T03:43:34.529Z,4.20
2022-11-03T03:47:36.259Z,3.58
2022-11-03T03:51:38.882Z,3.83
2022-11-03T03:55:43.169Z,4.25
2022-11-03T03:59:45.133Z,3.65
2022-11-03T04:03:47.033Z,3.13
2022-11-03T04:07:48.672Z,3.33
2022-11-03T04:12:08.455Z,4.28
2022-11-03T04:16:28.973Z,4.68
2022-11-03T04:20:49.178Z,4.13
2022-11-03T04:24:51.886Z,3.80
2022-11-03T04:28:54.557Z,4.25
2022-11-03T04:32:55.990Z,4.40
2022-11-03T04:36:57.577Z,5.13
2022-11-03T04:40:59.937Z,4.93
2022-11-03T04:45:02.686Z,4.95
2022-11-03T04:49:05.445Z,5.32
2022-11-03T04:53:14.948Z,4.82
2022-11-03T04:57:17.540Z,5.50
2022-11-03T05:01:24.274Z,5.93
2022-11-03T05:05:26.949Z,4.82
2022-11-03T05:09:30.651Z,5.38
2022-11-03T05:13:32.353Z,4.85
2022-11-03T05:17:34.049Z,5.35
2022-11-03T05:21:35.456Z,5.60
2022-11-03T05:25:45.741Z,5.15
2022-11-03T05:29:47.771Z,5.47
2022-11-03T05:33:51.085Z,6.68
2022-11-03T05:37:52.709Z,4.65
2022-11-03T05:41:54.847Z,4.88
2022-11-03T05:45:58.865Z,4.25
2022-11-03T05:50:06.885Z,5.68
2022-11-03T05:54:19.500Z,5.18
2022-11-03T05:58:23.342Z,5.10
2022-11-03T06:02:39.941Z,5.53
2022-11-03T06:06:41.471Z,5.83
2022-11-03T06:10:47.653Z,4.85
2022-11-03T06:14:49.604Z,4.95
2022-11-03T06:18:51.783Z,6.82
2022-11-03T06:22:55.414Z,5.53
2022-11-03T06:26:57.578Z,6.10
2022-11-03T06:30:59.497Z,6.30
2022-11-03T06:35:01.090Z,6.05
2022-11-03T06:39:08.936Z,5.88
2022-11-03T06:43:15.191Z,7.30
2022-11-03T06:47:22.245Z,6.70
2022-11-03T06:51:28.111Z,7.55
2022-11-03T06:55:31.609Z,6.63
2022-11-03T06:59:33.240Z,6.07
2022-11-03T07:03:37.854Z,6.18
2022-11-03T07:07:39.427Z,6.63
2022-11-03T07:11:46.777Z,6.20
2022-11-03T07:15:48.264Z,7.03
2022-11-03T07:19:49.860Z,6.82
2022-11-03T07:23:51.758Z,7.43
2022-11-03T07:27:55.149Z,7.70
2022-11-03T07:31:59.786Z,7.00
2022-11-03T07:36:17.315Z,5.60
2022-11-03T07:44:21.221Z,8.15
2022-11-03T07:48:22.643Z,7.22
2022-11-03T07:52:26.109Z,6.97
2022-11-03T07:56:29.881Z,7.28
2022-11-03T08:00:32.182Z,6.05
2022-11-03T08:04:35.571Z,7.13
2022-11-03T08:08:38.532Z,6.53
2022-11-03T08:12:40.167Z,5.50
2022-11-03T08:16:41.776Z,5.35
2022-11-03T08:20:43.443Z,4.65
2022-11-03T08:24:45.101Z,4.80
2022-11-03T08:28:46.929Z,5.40
2022-11-03T08:32:48.543Z,5.35
2022-11-03T08:36:49.965Z,3.90
2022-11-03T08:40:55.173Z,4.00
2022-11-03T08:44:57.322Z,4.38
2022-11-03T08:48:58.821Z,4.80
2022-11-03T08:53:00.276Z,3.70
2022-11-03T08:57:01.904Z,4.28
2022-11-03T09:01:03.295Z,3.53
2022-11-03T09:05:06.060Z,3.47
2022-11-03T09:13:29.388Z,3.63
2022-11-03T09:17:30.844Z,5.88
2022-11-03T09:21:32.512Z,3.22
2022-11-03T09:25:35.084Z,3.03
2022-11-03T09:30:06.400Z,2.78
2022-11-03T09:33:58.079Z,2.67
2022-11-03T09:37:59.490Z,2.85
2022-11-03T09:42:03.686Z,2.75
2022-11-03T09:46:05.260Z,2.47
2022-11-03T09:50:11.757Z,2.25
2022-11-03T09:54:17.656Z,2.95
2022-11-03T09:58:19.308Z,3.10
2022-11-03T10:02:31.790Z,2.60
2022-11-03T10:06:33.447Z,2.83
2022-11-03T10:10:36.144Z,2.50
2022-11-03T10:14:37.895Z,2.88
2022-11-03T10:18:39.437Z,3.40
2022-11-03T10:22:42.867Z,2.83
2022-11-03T10:26:49.483Z,3.83
2022-11-03T10:35:33.908Z,3.42
2022-11-03T10:39:35.321Z,4.20
2022-11-03T10:43:38.217Z,4.60
2022-11-03T10:47:39.749Z,4.10
2022-11-03T10:51:46.877Z,3.33
2022-11-03T10:55:48.897Z,4.20
2022-11-03T10:59:51.715Z,3.45
2022-11-03T11:03:53.376Z,3.53
2022-11-03T11:07:55.690Z,2.70
2022-11-03T11:12:08.348Z,5.75
2022-11-03T11:16:48.595Z,3.63
2022-11-03T11:20:50.205Z,3.83
2022-11-03T11:24:51.896Z,3.72
2022-11-03T11:29:13.513Z,3.30
2022-11-03T11:33:23.379Z,3.10
2022-11-03T11:37:24.845Z,3.60
2022-11-03T11:42:04.414Z,2.70
2022-11-03T11:46:40.015Z,2.30
2022-11-03T11:50:41.984Z,2.50
2022-11-03T11:54:43.601Z,2.42
2022-11-03T11:58:47.415Z,2.65
2022-11-03T12:02:49.652Z,2.97
2022-11-03T12:06:51.649Z,2.35
2022-11-03T12:10:54.941Z,2.15
2022-11-03T12:14:56.383Z,2.13
2022-11-03T12:19:11.073Z,2.65
2022-11-03T12:23:32.349Z,2.65
2022-11-03T12:27:34.455Z,2.35
2022-11-03T12:31:37.112Z,2.42
2022-11-03T12:35:38.730Z,5.07
2022-11-03T12:39:40.181Z,6.20
2022-11-03T12:43:41.690Z,6.13
2022-11-03T12:47:43.376Z,5.03
2022-11-03T12:51:44.784Z,4.82
2022-11-03T12:55:46.402Z,5.10
2022-11-03T12:59:48.627Z,4.40
2022-11-03T13:03:50.259Z,3.38
2022-11-03T13:07:51.930Z,3.65
2022-11-03T13:12:12.063Z,3.97
2022-11-03T13:16:13.673Z,6.03
2022-11-03T13:20:16.459Z,7.80
2022-11-03T13:24:17.955Z,6.30
2022-11-03T13:28:19.364Z,6.20
2022-11-03T13:32:21.084Z,5.05
2022-11-03T13:36:22.608Z,5.60
2022-11-03T13:44:45.618Z,5.80
2022-11-03T14:06:13.484Z,6.40
2022-11-03T14:10:14.955Z,6.43
2022-11-03T14:14:16.407Z,7.18
2022-11-03T14:18:18.724Z,7.15
2022-11-03T14:22:21.454Z,7.35
2022-11-03T14:26:41.012Z,6.45
2022-11-03T14:30:43.669Z,7.60
2022-11-03T14:34:45.920Z,8.00
2022-11-03T14:38:50.019Z,7.85
2022-11-03T14:42:51.632Z,7.63
2022-11-03T14:46:53.329Z,7.55
2022-11-03T14:50:55.084Z,7.32
2022-11-03T14:54:57.039Z,7.00
2022-11-03T14:58:58.508Z,6.72
2022-11-03T15:03:01.027Z,7.50
2022-11-03T15:07:02.522Z,6.90
2022-11-03T15:11:05.415Z,8.20
2022-11-03T15:15:07.235Z,7.15
2022-11-03T15:19:08.987Z,7.45
2022-11-03T15:27:32.015Z,7.38
2022-11-03T15:31:33.645Z,8.10
2022-11-03T15:35:35.438Z,6.07
2022-11-03T15:39:37.158Z,6.65
2022-11-03T15:43:38.602Z,6.80
2022-11-03T15:47:40.158Z,6.40
2022-11-03T15:51:41.642Z,9.88
2022-11-03T15:55:43.086Z,8.07
2022-11-03T15:59:44.535Z,6.78
2022-11-03T16:03:46.000Z,7.35
2022-11-03T16:07:47.424Z,7.30
2022-11-03T16:11:50.289Z,7.65
2022-11-03T16:15:53.136Z,7.10
2022-11-03T16:19:54.707Z,8.60
2022-11-03T16:23:56.320Z,7.00
2022-11-03T16:27:59.551Z,7.55
2022-11-03T16:32:01.086Z,7.47
2022-11-03T16:36:02.869Z,7.18
2022-11-03T16:40:05.950Z,6.50
2022-11-03T16:44:07.645Z,7.38
2022-11-03T16:48:09.617Z,6.78
2022-11-03T16:52:11.590Z,7.25
2022-11-03T16:56:14.610Z,6.95
2022-11-03T17:00:18.145Z,6.93
2022-11-03T17:04:19.864Z,9.30
2022-11-03T17:12:42.951Z,6.20
2022-11-03T17:16:48.512Z,5.95
2022-11-03T17:20:50.340Z,4.90
2022-11-03T17:24:51.958Z,4.75
2022-11-03T17:28:53.628Z,4.43
2022-11-03T17:32:58.547Z,4.97
2022-11-03T17:37:00.539Z,5.20
2022-11-03T17:41:02.219Z,4.45
2022-11-03T17:45:06.979Z,4.03
2022-11-03T17:49:08.547Z,4.47
2022-11-03T17:53:20.128Z,4.55
2022-11-03T17:57:22.596Z,4.68
2022-11-03T18:01:27.219Z,4.03
2022-11-03T18:05:31.468Z,4.10
2022-11-03T18:09:33.055Z,4.40
2022-11-03T18:13:34.660Z,4.93
2022-11-03T18:17:36.326Z,4.28
2022-11-03T18:21:38.074Z,4.05
2022-11-03T18:25:39.703Z,4.95
2022-11-03T18:29:41.156Z,4.60
2022-11-03T18:33:43.903Z,4.90
2022-11-03T18:37:45.551Z,4.63
2022-11-03T18:41:47.222Z,4.72
2022-11-03T18:45:48.940Z,4.95
2022-11-03T18:49:50.548Z,4.60
2022-11-03T18:53:53.193Z,4.30
2022-11-03T18:57:54.667Z,4.85
2022-11-03T19:01:56.482Z,4.72
2022-11-03T19:05:58.753Z,5.10
2022-11-03T19:10:00.620Z,5.82
2022-11-03T19:14:02.070Z,5.40
2022-11-03T19:18:05.399Z,6.05
2022-11-03T19:22:16.629Z,6.03
2022-11-03T19:26:24.942Z,6.22
2022-11-03T19:30:26.365Z,5.55
2022-11-03T19:34:30.396Z,5.65
2022-11-03T19:38:33.109Z,5.82
2022-11-03T19:42:37.600Z,5.32
2022-11-03T19:46:42.289Z,6.15
2022-11-03T19:50:43.843Z,5.60
2022-11-03T19:54:48.279Z,6.28
2022-11-03T19:58:50.487Z,5.95
2022-11-03T20:02:52.083Z,5.95
2022-11-03T20:06:53.665Z,5.88
2022-11-03T20:10:55.467Z,5.60
2022-11-03T20:14:57.055Z,6.55
2022-11-03T20:18:58.547Z,5.93
2022-11-03T20:23:01.112Z,5.22
2022-11-03T20:27:02.887Z,5.65
2022-11-03T20:31:04.849Z,5.03
2022-11-03T20:35:07.044Z,4.75
2022-11-03T20:39:13.992Z,5.82
2022-11-03T20:43:25.838Z,5.70
2022-11-03T20:47:28.584Z,5.63
2022-11-03T20:51:42.839Z,5.32
2022-11-03T20:55:44.835Z,5.13
2022-11-03T20:59:46.500Z,6.10
2022-11-03T21:04:03.591Z,4.78
2022-11-03T21:08:05.084Z,5.43
2022-11-03T21:12:11.081Z,5.57
2022-11-03T21:16:31.271Z,5.43
2022-11-03T21:20:33.131Z,6.38
2022-11-03T21:24:34.608Z,5.45
2022-11-03T21:28:36.412Z,6.07
2022-11-03T21:32:38.077Z,6.65
2022-11-03T21:36:39.798Z,6.30
2022-11-03T21:40:46.513Z,7.25
2022-11-03T21:44:48.431Z,6.18
2022-11-03T21:49:08.751Z,6.45
2022-11-03T21:53:11.430Z,6.45
2022-11-03T21:57:16.754Z,7.00
2022-11-03T22:01:18.924Z,6.90
2022-11-03T22:05:20.834Z,6.90
2022-11-03T22:09:23.725Z,6.68
2022-11-03T22:13:25.349Z,6.32
2022-11-03T22:17:27.099Z,6.80
2022-11-03T22:21:47.256Z,8.13
2022-11-03T22:26:07.417Z,7.30
2022-11-03T22:30:28.845Z,6.82
2022-11-03T22:34:49.164Z,5.80
2022-11-03T22:39:09.445Z,6.88
2022-11-03T22:43:29.392Z,6.68
2022-11-03T22:47:30.813Z,7.65
2022-11-03T22:51:32.886Z,7.97
2022-11-03T22:55:34.453Z,6.65
2022-11-03T22:59:35.963Z,5.80
2022-11-03T23:03:39.864Z,6.68
2022-11-03T23:07:41.877Z,5.47
2022-11-03T23:11:43.550Z,3.80
2022-11-03T23:15:45.198Z,3.70
2022-11-03T23:20:05.387Z,2.53
2022-11-03T23:24:26.158Z,2.10
2022-11-03T23:28:27.581Z,2.05
2022-11-03T23:32:28.976Z,1.70
2022-11-03T23:36:30.792Z,1.63
2022-11-03T23:40:33.416Z,11.55
2022-11-03T23:44:53.806Z,1.35
2022-11-03T23:48:55.925Z,1.35
2022-11-03T23:52:57.484Z,1.15
2022-11-03T23:57:17.530Z,1.30
